createdAt,value
2023-05-10T00:03:14.337Z,6.3
2023-05-10T00:07:58.456Z,4.69
2023-05-10T00:12:42.678Z,8.39
2023-05-10T00:17:26.786Z,4.69
2023-05-10T00:22:11.006Z,3.3
2023-05-10T00:26:55.119Z,3.3
2023-05-10T00:31:39.342Z,3.1
2023-05-10T00:36:23.457Z,3.2
2023-05-10T00:41:07.664Z,3.7
2023-05-10T00:45:51.878Z,9.6
2023-05-10T00:55:20.217Z,3.5
2023-05-10T01:00:04.326Z,3.3
2023-05-10T01:09:32.664Z,3.1
2023-05-10T01:14:16.884Z,6
2023-05-10T01:19:01.193Z,5.3
2023-05-10T01:23:45.420Z,8.39
2023-05-10T01:28:29.523Z,4
2023-05-10T01:33:13.937Z,4.69
2023-05-10T01:37:58.058Z,5.2
2023-05-10T01:42:42.270Z,5.6
2023-05-10T01:47:26.614Z,6
2023-05-10T01:52:10.702Z,8.6
2023-05-10T01:56:54.916Z,9.2
2023-05-10T02:01:39.132Z,11.2
2023-05-10T02:06:23.254Z,7.8
2023-05-10T02:11:07.464Z,10.2
2023-05-10T02:15:51.578Z,9.3
2023-05-10T02:20:35.789Z,12.8
2023-05-10T02:25:19.922Z,8.7
2023-05-10T02:30:04.127Z,12.5
2023-05-10T02:34:48.239Z,14.1
2023-05-10T02:39:32.455Z,12.8
2023-05-10T02:44:16.670Z,15.2
2023-05-10T02:49:00.813Z,18.7
2023-05-10T02:53:45.028Z,15.6
2023-05-10T02:58:29.117Z,14.1
2023-05-10T03:03:13.436Z,21.5
2023-05-10T03:07:58.150Z,22
2023-05-10T03:12:42.470Z,16
2023-05-10T03:17:26.687Z,26.4
2023-05-10T03:22:10.795Z,19
2023-05-10T03:26:55.017Z,29.7
2023-05-10T03:31:39.147Z,30
2023-05-10T03:36:23.336Z,30.7
2023-05-10T03:41:07.462Z,30.7
2023-05-10T03:45:51.172Z,32
2023-05-10T03:50:34.385Z,38.4
2023-05-10T03:55:17.207Z,29.7
2023-05-10T04:00:00.537Z,26.5
2023-05-10T04:04:43.729Z,32
2023-05-10T04:09:27.052Z,23.5
2023-05-10T04:14:10.392Z,24
2023-05-10T04:23:36.881Z,42.4
2023-05-10T04:28:20.090Z,19.2
2023-05-10T04:33:03.400Z,20.6
2023-05-10T04:42:29.938Z,10.5
2023-05-10T04:47:13.144Z,6.6
2023-05-10T04:51:56.459Z,8.2
2023-05-10T04:56:39.673Z,1.6
2023-05-10T05:01:22.700Z,1.7
2023-05-10T05:06:05.504Z,5.1
2023-05-10T05:10:47.948Z,2.6
2023-05-10T05:15:29.926Z,2.5
2023-05-10T05:20:12.653Z,2.9
2023-05-10T05:24:55.349Z,2.6
2023-05-10T05:29:38.063Z,3.2
2023-05-10T05:34:20.780Z,2.09
2023-05-10T05:39:03.592Z,2.5
2023-05-10T05:43:46.499Z,1
2023-05-10T05:48:29.120Z,3.8
2023-05-10T05:53:11.746Z,6.1
2023-05-10T05:57:54.522Z,2.9
2023-05-10T06:12:02.703Z,1.2
2023-05-10T06:16:45.447Z,5.3
2023-05-10T06:21:28.182Z,3.1
2023-05-10T06:30:53.630Z,2.7
2023-05-10T06:35:36.354Z,1
2023-05-10T07:03:52.789Z,1.6
2023-05-10T07:08:35.608Z,0.8
2023-05-10T07:22:43.693Z,1.9
2023-05-10T07:27:26.457Z,1.5
2023-05-10T07:32:08.416Z,7.5
2023-05-10T07:36:50.502Z,1.2
2023-05-10T07:41:33.140Z,2.5
2023-05-10T07:46:15.917Z,0.5
2023-05-10T07:50:58.654Z,8.89
2023-05-10T08:00:24.075Z,4.8
2023-05-10T08:05:06.815Z,11.2
2023-05-10T08:09:49.498Z,1.5
2023-05-10T08:23:57.860Z,1.8
2023-05-10T08:33:23.378Z,2.8
2023-05-10T08:42:48.808Z,3.2
2023-05-10T08:52:14.161Z,3.3
2023-05-10T08:56:56.835Z,0.9
2023-05-10T09:01:39.540Z,3.3
2023-05-10T09:06:22.334Z,1.4
2023-05-10T09:15:47.841Z,20.1
2023-05-10T09:29:55.922Z,0.7
2023-05-10T09:34:38.664Z,8.7
2023-05-10T09:44:04.166Z,1.9
2023-05-10T09:53:29.599Z,1.2
2023-05-10T09:58:12.358Z,1.8
2023-05-10T10:02:55.120Z,5.3
2023-05-10T10:07:37.892Z,1.4
2023-05-10T10:12:20.550Z,1.2
2023-05-10T10:17:03.261Z,1
2023-05-10T10:21:45.969Z,3.5
2023-05-10T10:26:28.681Z,10.8
2023-05-10T10:31:12.011Z,15.3
2023-05-10T10:45:21.966Z,7.9
2023-05-10T10:50:05.179Z,4.3
2023-05-10T11:04:15.042Z,2.9
2023-05-10T11:08:58.188Z,11.2
2023-05-10T11:18:24.657Z,7.8
2023-05-10T11:23:07.479Z,8.3
2023-05-10T11:27:50.775Z,4.5
2023-05-10T11:42:00.508Z,14.1
2023-05-10T11:46:43.824Z,2.09
2023-05-10T11:51:27.059Z,8
2023-05-10T11:56:10.366Z,8.8
2023-05-10T12:00:53.563Z,5.8
2023-05-10T12:10:20.186Z,8.8
2023-05-10T12:15:03.409Z,14.1
2023-05-10T12:19:46.713Z,5.9
2023-05-10T12:29:13.231Z,0.9
2023-05-10T12:33:56.454Z,12
2023-05-10T12:38:39.787Z,1
2023-05-10T12:43:22.671Z,0.7
2023-05-10T12:48:05.912Z,1
2023-05-10T12:52:49.332Z,11.8
2023-05-10T13:02:15.816Z,0.5
2023-05-10T13:06:58.947Z,1.7
2023-05-10T13:11:42.337Z,1.3
2023-05-10T13:16:25.614Z,1.5
2023-05-10T13:21:08.910Z,3.2
2023-05-10T13:30:35.323Z,9.7
2023-05-10T13:35:18.540Z,0.8
2023-05-10T13:40:01.900Z,4.5
2023-05-10T13:44:45.067Z,5.7
2023-05-10T13:49:28.376Z,1.4
2023-05-10T13:54:11.589Z,1.4
2023-05-10T13:58:55.001Z,1.9
2023-05-10T14:03:38.192Z,0.6
2023-05-10T14:13:04.734Z,2.5
2023-05-10T14:17:48.055Z,1.9
2023-05-10T14:22:31.205Z,0.3
2023-05-10T14:31:57.762Z,1.3
2023-05-10T14:36:41.094Z,0.8
2023-05-10T14:41:24.344Z,0.6
2023-05-10T14:46:07.570Z,1.8
2023-05-10T14:50:50.863Z,4.19
2023-05-10T15:00:17.486Z,0.9
2023-05-10T15:09:43.978Z,1.3
2023-05-10T15:14:27.230Z,0.9
2023-05-10T15:19:10.514Z,9.3
2023-05-10T15:23:53.765Z,2.09
2023-05-10T15:33:20.351Z,1.1
2023-05-10T15:42:48.574Z,4.3
2023-05-10T15:47:32.739Z,4.5
2023-05-10T15:57:01.149Z,5.6
2023-05-10T16:06:29.415Z,10.3
2023-05-10T16:11:13.701Z,1.2
2023-05-10T16:15:57.723Z,2.7
2023-05-10T16:20:42.008Z,2.4
2023-05-10T16:30:10.284Z,1.6
2023-05-10T16:34:54.521Z,3.9
2023-05-10T16:39:38.806Z,2.09
2023-05-10T16:44:23.030Z,3.9
2023-05-10T16:49:07.151Z,3.2
2023-05-10T16:53:51.259Z,8.3
2023-05-10T16:58:35.493Z,3.6
2023-05-10T17:03:19.607Z,5.7
2023-05-10T17:08:03.823Z,2.5
2023-05-10T17:12:48.079Z,4.9
2023-05-10T17:17:32.124Z,3.3
2023-05-10T17:22:16.443Z,3.3
2023-05-10T17:31:44.675Z,10.6
2023-05-10T17:36:37.693Z,7.2
2023-05-10T17:41:13.438Z,10.1
2023-05-10T17:55:25.913Z,9.8
2023-05-10T18:00:10.074Z,8.7
2023-05-10T18:09:38.410Z,10.3
2023-05-10T18:14:22.605Z,6.9
2023-05-10T18:19:06.250Z,8.3
2023-05-10T18:23:49.668Z,9.2
2023-05-10T18:28:32.761Z,9.2
2023-05-10T18:37:59.277Z,8.39
2023-05-10T18:42:42.551Z,7.6
2023-05-10T18:47:25.897Z,5.8
2023-05-10T18:56:52.449Z,6.7
2023-05-10T19:01:35.569Z,6.4
2023-05-10T19:11:02.081Z,7.1
2023-05-10T19:15:45.692Z,10.3
2023-05-10T19:20:29.230Z,15.7
2023-05-10T19:25:11.545Z,12.7
2023-05-10T19:29:54.727Z,8.1
2023-05-10T19:34:38.133Z,13.9
2023-05-10T19:39:21.277Z,11
2023-05-10T19:44:04.576Z,13.4
2023-05-10T19:48:48.615Z,9.8
2023-05-10T19:53:31.109Z,10.4
2023-05-10T19:58:14.349Z,9.1
2023-05-10T20:02:57.627Z,8.2
2023-05-10T20:07:40.845Z,11.4
2023-05-10T20:12:24.209Z,10.4
2023-05-10T20:17:07.410Z,8.7
2023-05-10T20:21:50.871Z,12.3
2023-05-10T20:26:33.104Z,8.6
2023-05-10T20:31:15.808Z,8.7
2023-05-10T20:35:58.567Z,13.2
2023-05-10T20:40:41.256Z,21.3
2023-05-10T20:45:23.244Z,13
2023-05-10T20:50:05.955Z,22.6
2023-05-10T20:54:48.782Z,13.5
2023-05-10T20:59:31.485Z,10.1
2023-05-10T21:04:14.198Z,10.2
2023-05-10T21:08:56.919Z,15.3
2023-05-10T21:13:39.821Z,14.4
2023-05-10T21:18:22.469Z,13.4
2023-05-10T21:23:05.106Z,17.7
2023-05-10T21:27:47.897Z,19.7
2023-05-10T21:32:30.613Z,16.1
2023-05-10T21:37:13.301Z,22.7
2023-05-10T21:41:56.009Z,18.7
2023-05-10T21:46:38.758Z,20.8
2023-05-10T21:51:21.549Z,17.2
2023-05-10T21:56:03.537Z,14.8
2023-05-10T22:00:46.284Z,20.5
2023-05-10T22:05:28.965Z,18.29
2023-05-10T22:14:54.491Z,21.2
2023-05-10T22:19:36.501Z,27.6
2023-05-10T22:24:19.217Z,18
2023-05-10T22:29:01.958Z,20.2
2023-05-10T22:33:44.634Z,22.6
2023-05-10T22:38:27.355Z,23
2023-05-10T22:43:10.172Z,16.29
2023-05-10T22:47:52.875Z,18.6
2023-05-10T22:52:35.589Z,17.4
2023-05-10T22:57:18.328Z,16.79
2023-05-10T23:02:01.033Z,15.5
2023-05-10T23:06:43.732Z,17.7
2023-05-10T23:11:26.541Z,15.8
2023-05-10T23:16:09.257Z,17.79
2023-05-10T23:25:34.024Z,14.5
2023-05-10T23:30:16.693Z,16.79
2023-05-10T23:34:59.398Z,18.9
2023-05-10T23:39:42.126Z,19.4
2023-05-10T23:44:24.935Z,16.2
2023-05-10T23:53:50.359Z,17.1
